createdAt,value
2019-01-26T00:00:46.122Z,14.50
2019-01-26T00:03:14.563Z,15.50
2019-01-26T00:05:43.100Z,13.20
2019-01-26T00:08:11.974Z,13.80
2019-01-26T00:10:40.505Z,13.25
2019-01-26T00:13:08.989Z,15.30
2019-01-26T00:15:37.446Z,14.18
2019-01-26T00:18:05.917Z,15.18
2019-01-26T00:20:36.504Z,13.68
2019-01-26T00:23:05.147Z,13.20
2019-01-26T00:25:33.549Z,14.05
2019-01-26T00:28:01.948Z,14.20
2019-01-26T00:30:30.681Z,14.18
2019-01-26T00:32:59.094Z,13.48
2019-01-26T00:35:27.514Z,12.75
2019-01-26T00:37:55.935Z,13.68
2019-01-26T00:40:24.380Z,12.47
2019-01-26T00:42:52.805Z,14.95
2019-01-26T00:45:21.253Z,13.60
2019-01-26T00:47:49.680Z,13.18
2019-01-26T00:50:18.169Z,14.83
2019-01-26T00:52:46.579Z,13.10
2019-01-26T00:55:29.082Z,14.50
2019-01-26T00:57:57.553Z,12.98
2019-01-26T01:00:26.110Z,13.10
2019-01-26T01:02:54.611Z,12.03
2019-01-26T01:05:23.472Z,12.28
2019-01-26T01:07:52.128Z,11.85
2019-01-26T01:10:21.045Z,13.35
2019-01-26T01:12:49.744Z,13.68
2019-01-26T01:15:22.735Z,12.18
2019-01-26T01:17:51.483Z,12.43
2019-01-26T01:20:20.420Z,11.45
2019-01-26T01:22:49.407Z,13.08
2019-01-26T01:25:18.033Z,13.38
2019-01-26T01:27:46.809Z,12.33
2019-01-26T01:30:21.038Z,11.35
2019-01-26T01:32:49.470Z,11.03
2019-01-26T01:35:18.342Z,10.43
2019-01-26T01:37:46.784Z,11.15
2019-01-26T01:40:17.952Z,12.78
2019-01-26T01:42:46.360Z,11.35
2019-01-26T01:45:17.608Z,11.90
2019-01-26T01:47:46.061Z,9.70
2019-01-26T01:50:15.044Z,9.78
2019-01-26T01:52:43.712Z,11.33
2019-01-26T01:55:12.581Z,10.35
2019-01-26T01:57:41.115Z,9.63
2019-01-26T02:00:15.454Z,8.65
2019-01-26T02:02:44.011Z,11.45
2019-01-26T02:05:12.798Z,8.78
2019-01-26T02:07:41.204Z,8.88
2019-01-26T02:10:12.873Z,9.68
2019-01-26T02:12:41.298Z,8.75
2019-01-26T02:15:11.334Z,9.25
2019-01-26T02:17:40.013Z,8.85
2019-01-26T02:20:17.605Z,9.95
2019-01-26T02:22:46.015Z,8.35
2019-01-26T02:25:14.573Z,9.33
2019-01-26T02:27:43.720Z,8.30
2019-01-26T02:30:15.231Z,7.42
2019-01-26T02:32:43.742Z,9.45
2019-01-26T02:35:12.461Z,7.55
2019-01-26T02:37:40.882Z,8.35
2019-01-26T02:40:11.941Z,8.38
2019-01-26T02:42:40.434Z,8.18
2019-01-26T02:45:11.177Z,8.10
2019-01-26T02:47:39.604Z,6.50
2019-01-26T02:50:10.966Z,5.83
2019-01-26T02:52:39.458Z,8.33
2019-01-26T02:55:08.009Z,7.67
2019-01-26T02:57:36.422Z,8.33
2019-01-26T03:00:07.972Z,7.30
2019-01-26T03:02:36.376Z,8.58
2019-01-26T03:05:07.147Z,7.53
2019-01-26T03:07:35.616Z,7.70
2019-01-26T03:10:10.111Z,8.88
2019-01-26T03:12:38.537Z,8.78
2019-01-26T03:15:10.161Z,7.87
2019-01-26T03:17:38.597Z,8.05
2019-01-26T03:20:11.898Z,8.43
2019-01-26T03:22:40.328Z,8.30
2019-01-26T03:25:10.181Z,9.10
2019-01-26T03:27:38.630Z,8.58
2019-01-26T03:30:10.174Z,8.50
2019-01-26T03:32:39.019Z,8.33
2019-01-26T03:35:07.686Z,8.85
2019-01-26T03:37:36.160Z,9.85
2019-01-26T03:40:10.509Z,8.93
2019-01-26T03:42:38.947Z,8.00
2019-01-26T03:45:09.818Z,7.35
2019-01-26T03:47:38.242Z,8.78
2019-01-26T03:50:09.998Z,9.68
2019-01-26T03:52:38.470Z,10.23
2019-01-26T03:55:09.522Z,9.60
2019-01-26T03:57:38.001Z,8.35
2019-01-26T04:00:12.036Z,8.15
2019-01-26T04:02:40.521Z,7.37
2019-01-26T04:05:09.101Z,8.50
2019-01-26T04:07:37.814Z,7.67
2019-01-26T04:10:08.967Z,7.83
2019-01-26T04:12:37.465Z,6.17
2019-01-26T04:15:09.447Z,7.35
2019-01-26T04:17:37.957Z,8.53
2019-01-26T04:20:10.009Z,8.58
2019-01-26T04:22:38.401Z,8.43
2019-01-26T04:25:07.407Z,7.42
2019-01-26T04:27:35.800Z,7.70
2019-01-26T04:30:09.205Z,7.92
2019-01-26T04:32:37.636Z,6.90
2019-01-26T04:35:08.118Z,7.85
2019-01-26T04:37:36.698Z,9.20
2019-01-26T04:40:08.661Z,6.35
2019-01-26T04:42:37.069Z,8.18
2019-01-26T04:45:08.661Z,7.60
2019-01-26T04:47:37.078Z,8.83
2019-01-26T04:50:08.226Z,8.00
2019-01-26T04:52:36.649Z,7.45
2019-01-26T04:55:06.103Z,6.87
2019-01-26T04:57:34.510Z,6.83
2019-01-26T05:00:02.933Z,8.73
2019-01-26T05:02:31.365Z,6.87
2019-01-26T05:04:59.801Z,8.00
2019-01-26T05:07:28.352Z,6.62
2019-01-26T05:09:56.764Z,6.92
2019-01-26T05:12:25.165Z,8.53
2019-01-26T05:14:53.586Z,7.00
2019-01-26T05:17:22.046Z,6.97
2019-01-26T05:19:50.757Z,7.87
2019-01-26T05:22:19.216Z,6.65
2019-01-26T05:24:47.700Z,8.03
2019-01-26T05:27:16.501Z,7.55
2019-01-26T05:29:44.950Z,7.47
2019-01-26T05:32:13.345Z,8.33
2019-01-26T05:34:41.765Z,7.53
2019-01-26T05:37:10.189Z,7.00
2019-01-26T05:39:38.619Z,7.72
2019-01-26T05:42:07.020Z,7.05
2019-01-26T05:44:35.437Z,7.45
2019-01-26T05:47:04.269Z,7.10
2019-01-26T05:49:32.669Z,5.22
2019-01-26T05:52:01.072Z,7.00
2019-01-26T05:54:29.485Z,7.90
2019-01-26T05:56:57.923Z,6.55
2019-01-26T05:59:26.341Z,10.45
2019-01-26T06:01:54.749Z,6.85
2019-01-26T06:04:23.199Z,7.22
2019-01-26T06:06:51.665Z,7.05
2019-01-26T06:09:20.095Z,6.92
2019-01-26T06:11:48.502Z,7.15
2019-01-26T06:14:17.164Z,6.90
2019-01-26T06:16:45.745Z,7.67
2019-01-26T06:19:14.421Z,7.37
2019-01-26T06:21:42.826Z,7.97
2019-01-26T06:24:11.261Z,7.37
2019-01-26T06:26:39.716Z,6.55
2019-01-26T06:29:08.117Z,6.15
2019-01-26T06:31:36.574Z,6.83
2019-01-26T06:34:05.011Z,6.25
2019-01-26T06:36:33.417Z,7.20
2019-01-26T06:39:01.816Z,6.58
2019-01-26T06:41:30.272Z,7.08
2019-01-26T06:43:58.933Z,6.15
2019-01-26T06:46:27.628Z,6.58
2019-01-26T06:48:57.465Z,6.50
2019-01-26T06:51:25.881Z,7.22
2019-01-26T06:53:54.605Z,5.85
2019-01-26T06:56:23.053Z,5.10
2019-01-26T06:58:51.452Z,7.03
2019-01-26T07:01:19.856Z,5.58
2019-01-26T07:03:48.286Z,6.33
2019-01-26T07:06:21.242Z,7.78
2019-01-26T07:08:49.681Z,6.45
2019-01-26T07:11:18.109Z,7.05
2019-01-26T07:13:46.509Z,6.90
2019-01-26T07:16:16.579Z,7.03
2019-01-26T07:18:44.965Z,6.25
2019-01-26T07:21:13.386Z,6.92
2019-01-26T07:23:42.130Z,6.58
2019-01-26T07:26:10.577Z,6.87
2019-01-26T07:28:39.008Z,6.33
2019-01-26T07:31:07.693Z,6.70
2019-01-26T07:33:36.096Z,8.30
2019-01-26T07:36:04.580Z,7.08
2019-01-26T07:38:32.997Z,6.00
2019-01-26T07:41:01.719Z,7.70
2019-01-26T07:43:30.148Z,7.17
2019-01-26T07:45:58.564Z,7.03
2019-01-26T07:48:27.210Z,6.45
2019-01-26T07:50:56.968Z,7.25
2019-01-26T07:53:25.488Z,6.80
2019-01-26T07:55:53.921Z,7.42
2019-01-26T07:58:22.336Z,6.83
2019-01-26T08:00:50.748Z,5.42
2019-01-26T08:03:19.251Z,7.85
2019-01-26T08:05:47.753Z,6.58
2019-01-26T08:08:16.248Z,6.40
2019-01-26T08:10:44.650Z,6.65
2019-01-26T08:13:13.094Z,5.85
2019-01-26T08:15:41.584Z,5.65
2019-01-26T08:18:10.085Z,6.15
2019-01-26T08:20:38.617Z,6.53
2019-01-26T08:23:07.353Z,6.35
2019-01-26T08:25:35.760Z,6.28
2019-01-26T08:28:04.245Z,6.78
2019-01-26T08:30:32.833Z,5.33
2019-01-26T08:33:01.232Z,6.28
2019-01-26T08:35:29.662Z,5.70
2019-01-26T08:37:58.065Z,6.20
2019-01-26T08:40:26.456Z,6.42
2019-01-26T08:42:55.290Z,6.80
2019-01-26T08:45:23.737Z,6.85
2019-01-26T08:47:53.081Z,6.92
2019-01-26T08:50:23.345Z,6.42
2019-01-26T08:52:52.125Z,5.70
2019-01-26T08:55:20.913Z,6.58
2019-01-26T08:57:49.394Z,6.28
2019-01-26T09:00:20.418Z,7.08
2019-01-26T09:02:54.677Z,5.08
2019-01-26T09:05:25.182Z,7.00
2019-01-26T09:07:53.664Z,6.25
2019-01-26T09:10:22.142Z,7.30
2019-01-26T09:12:50.570Z,7.55
2019-01-26T09:15:19.053Z,6.95
2019-01-26T09:17:47.534Z,6.40
2019-01-26T09:20:18.632Z,6.97
2019-01-26T09:22:47.057Z,8.03
2019-01-26T09:25:15.482Z,6.53
2019-01-26T09:27:44.189Z,7.70
2019-01-26T09:30:15.998Z,7.20
2019-01-26T09:32:44.405Z,7.15
2019-01-26T09:35:13.005Z,7.08
2019-01-26T09:37:41.479Z,7.10
2019-01-26T09:40:18.540Z,5.80
2019-01-26T09:42:46.958Z,7.70
2019-01-26T09:45:17.950Z,6.75
2019-01-26T09:47:46.788Z,7.05
2019-01-26T09:50:15.766Z,7.55
2019-01-26T09:52:44.270Z,5.85
2019-01-26T09:55:14.821Z,7.40
2019-01-26T09:57:43.225Z,7.55
2019-01-26T10:00:17.621Z,7.37
2019-01-26T10:02:46.377Z,6.75
2019-01-26T10:05:15.008Z,6.10
2019-01-26T10:07:43.435Z,6.83
2019-01-26T10:10:13.920Z,10.98
2019-01-26T10:12:42.334Z,6.80
2019-01-26T10:15:22.914Z,6.55
2019-01-26T10:17:51.906Z,7.00
2019-01-26T10:20:38.411Z,6.45
2019-01-26T10:23:08.177Z,7.15
2019-01-26T10:25:36.706Z,6.40
2019-01-26T10:28:06.236Z,6.53
2019-01-26T10:30:44.699Z,6.90
2019-01-26T10:33:13.182Z,5.50
2019-01-26T10:35:46.309Z,5.75
2019-01-26T10:38:14.776Z,5.53
2019-01-26T10:40:45.256Z,6.90
2019-01-26T10:43:15.344Z,6.97
2019-01-26T10:45:44.196Z,6.65
2019-01-26T10:48:12.926Z,5.15
2019-01-26T10:50:41.381Z,6.40
2019-01-26T10:53:10.040Z,5.22
2019-01-26T10:55:38.647Z,6.33
2019-01-26T10:58:09.712Z,6.15
2019-01-26T11:00:38.357Z,5.37
2019-01-26T11:03:08.186Z,5.95
2019-01-26T11:05:36.669Z,5.75
2019-01-26T11:08:05.274Z,5.33
2019-01-26T11:10:33.733Z,5.15
2019-01-26T11:13:02.466Z,5.17
2019-01-26T11:15:30.953Z,6.35
2019-01-26T11:17:59.380Z,5.20
2019-01-26T11:20:27.864Z,5.58
2019-01-26T11:22:56.318Z,5.50
2019-01-26T11:25:24.974Z,5.05
2019-01-26T11:27:53.393Z,5.00
2019-01-26T11:30:23.470Z,4.83
2019-01-26T11:32:51.906Z,5.83
2019-01-26T11:35:25.022Z,4.50
2019-01-26T11:38:04.059Z,5.05
2019-01-26T11:40:32.764Z,4.90
2019-01-26T11:43:01.216Z,5.67
2019-01-26T11:45:46.464Z,5.00
2019-01-26T11:48:19.643Z,4.42
2019-01-26T11:51:05.155Z,4.28
2019-01-26T11:53:33.632Z,4.10
2019-01-26T11:56:06.614Z,4.53
2019-01-26T11:58:35.094Z,4.90
2019-01-26T12:01:23.440Z,4.17
2019-01-26T12:03:53.542Z,5.17
2019-01-26T12:06:26.488Z,5.33
2019-01-26T12:08:54.982Z,4.75
2019-01-26T12:11:23.376Z,5.50
2019-01-26T12:13:51.911Z,6.30
2019-01-26T12:16:26.736Z,4.55
2019-01-26T12:18:50.662Z,5.37
2019-01-26T12:21:19.174Z,5.30
2019-01-26T12:23:48.028Z,4.33
2019-01-26T12:26:17.029Z,5.10
2019-01-26T12:28:45.997Z,5.42
2019-01-26T12:31:14.618Z,5.72
2019-01-26T12:33:43.612Z,4.25
2019-01-26T12:36:12.204Z,5.00
2019-01-26T12:38:40.789Z,5.00
2019-01-26T12:41:09.714Z,4.87
2019-01-26T12:43:38.809Z,5.05
2019-01-26T12:46:07.404Z,5.40
2019-01-26T12:48:36.348Z,5.20
2019-01-26T12:51:05.105Z,4.62
2019-01-26T12:53:34.753Z,4.50
2019-01-26T12:56:03.537Z,4.30
2019-01-26T12:58:32.168Z,5.25
2019-01-26T13:01:00.867Z,3.55
2019-01-26T13:03:29.982Z,4.15
2019-01-26T13:05:58.460Z,4.50
2019-01-26T13:08:27.205Z,4.65
2019-01-26T13:11:01.493Z,4.80
2019-01-26T13:13:30.256Z,4.30
2019-01-26T13:15:58.764Z,4.35
2019-01-26T13:18:27.231Z,4.30
2019-01-26T13:20:55.715Z,4.08
2019-01-26T13:23:24.193Z,4.40
2019-01-26T13:25:52.689Z,3.90
2019-01-26T13:28:21.245Z,4.95
2019-01-26T13:30:49.863Z,3.67
2019-01-26T13:33:18.568Z,4.65
2019-01-26T13:35:47.050Z,3.83
2019-01-26T13:38:15.633Z,5.12
2019-01-26T13:40:44.096Z,3.92
2019-01-26T13:43:12.659Z,4.35
2019-01-26T13:45:41.287Z,4.30
2019-01-26T13:48:10.026Z,4.28
2019-01-26T13:50:38.615Z,5.12
2019-01-26T13:53:07.109Z,5.85
2019-01-26T13:55:35.522Z,4.12
2019-01-26T13:58:04.841Z,4.75
2019-01-26T14:00:37.714Z,4.90
2019-01-26T14:03:06.561Z,5.83
2019-01-26T14:05:34.990Z,5.62
2019-01-26T14:08:03.479Z,4.28
2019-01-26T14:10:32.076Z,4.03
2019-01-26T14:13:01.087Z,4.78
2019-01-26T14:15:29.885Z,6.45
2019-01-26T14:17:58.392Z,4.03
2019-01-26T14:20:28.308Z,4.58
2019-01-26T14:22:56.898Z,3.80
2019-01-26T14:25:27.098Z,4.17
2019-01-26T14:27:55.998Z,4.20
2019-01-26T14:30:30.281Z,4.33
2019-01-26T14:32:59.060Z,4.53
2019-01-26T14:35:27.597Z,3.98
2019-01-26T14:37:56.076Z,5.12
2019-01-26T14:40:24.829Z,4.90
2019-01-26T14:42:54.328Z,4.97
2019-01-26T14:45:23.536Z,4.10
2019-01-26T14:47:52.020Z,4.58
2019-01-26T14:50:20.986Z,3.47
2019-01-26T14:52:49.563Z,4.28
2019-01-26T14:55:26.285Z,4.80
2019-01-26T14:57:54.697Z,4.22
2019-01-26T15:00:28.648Z,4.45
2019-01-26T15:02:57.773Z,5.33
2019-01-26T15:05:26.930Z,5.28
2019-01-26T15:07:57.086Z,5.15
2019-01-26T15:10:25.621Z,4.60
2019-01-26T15:12:54.060Z,4.47
2019-01-26T15:15:22.683Z,5.20
2019-01-26T15:17:51.274Z,4.92
2019-01-26T15:20:25.607Z,4.80
2019-01-26T15:22:54.171Z,4.95
2019-01-26T15:25:22.808Z,4.78
2019-01-26T15:27:51.464Z,4.50
2019-01-26T15:30:31.411Z,6.22
2019-01-26T15:32:59.900Z,4.90
2019-01-26T15:35:28.634Z,4.10
2019-01-26T15:37:57.350Z,5.20
2019-01-26T15:40:26.172Z,6.40
2019-01-26T15:42:55.218Z,5.10
2019-01-26T15:45:36.049Z,5.58
2019-01-26T15:48:05.633Z,5.53
2019-01-26T15:50:34.243Z,4.87
2019-01-26T15:53:02.861Z,5.80
2019-01-26T15:55:31.561Z,4.95
2019-01-26T15:58:00.273Z,5.03
2019-01-26T16:00:34.852Z,5.90
2019-01-26T16:03:03.409Z,7.80
2019-01-26T16:05:32.522Z,8.13
2019-01-26T16:08:01.108Z,8.53
2019-01-26T16:10:30.641Z,8.83
2019-01-26T16:12:59.805Z,8.83
2019-01-26T16:15:31.531Z,7.97
2019-01-26T16:18:00.122Z,6.20
2019-01-26T16:20:29.245Z,6.35
2019-01-26T16:22:57.897Z,5.22
2019-01-26T16:25:26.489Z,8.05
2019-01-26T16:27:55.653Z,7.37
2019-01-26T16:30:27.085Z,8.05
2019-01-26T16:32:56.001Z,7.83
2019-01-26T16:35:25.889Z,7.42
2019-01-26T16:37:54.459Z,7.28
2019-01-26T16:40:26.168Z,6.97
2019-01-26T16:42:54.970Z,5.40
2019-01-26T16:45:31.544Z,4.72
2019-01-26T16:48:00.229Z,5.00
2019-01-26T16:50:30.674Z,5.47
2019-01-26T16:52:59.988Z,5.10
2019-01-26T16:55:29.445Z,4.45
2019-01-26T16:57:58.611Z,5.35
2019-01-26T17:00:38.805Z,5.65
2019-01-26T17:03:07.998Z,5.65
2019-01-26T17:05:36.760Z,7.10
2019-01-26T17:08:05.989Z,5.65
2019-01-26T17:10:36.041Z,6.58
2019-01-26T17:13:04.689Z,7.58
2019-01-26T17:15:33.303Z,6.08
2019-01-26T17:18:02.060Z,6.45
2019-01-26T17:20:34.970Z,5.83
2019-01-26T17:23:03.795Z,5.35
2019-01-26T17:25:32.703Z,5.45
2019-01-26T17:28:01.353Z,5.87
2019-01-26T17:30:32.367Z,6.40
2019-01-26T17:33:07.362Z,5.50
2019-01-26T17:35:31.747Z,4.87
2019-01-26T17:38:00.372Z,4.90
2019-01-26T17:40:29.000Z,5.15
2019-01-26T17:42:57.472Z,5.25
2019-01-26T17:45:26.411Z,7.20
2019-01-26T17:47:54.953Z,5.08
2019-01-26T17:50:28.140Z,5.50
2019-01-26T17:52:56.747Z,5.30
2019-01-26T17:55:26.068Z,6.60
2019-01-26T17:57:54.737Z,5.97
2019-01-26T18:00:32.978Z,6.12
2019-01-26T18:03:01.972Z,5.75
2019-01-26T18:05:30.542Z,5.10
2019-01-26T18:07:58.997Z,5.62
2019-01-26T18:10:27.579Z,4.80
2019-01-26T18:12:57.070Z,6.22
2019-01-26T18:15:25.583Z,5.17
2019-01-26T18:17:54.176Z,4.90
2019-01-26T18:20:29.953Z,4.37
2019-01-26T18:23:00.173Z,4.75
2019-01-26T18:25:30.285Z,5.65
2019-01-26T18:27:58.778Z,7.15
2019-01-26T18:30:29.514Z,10.65
2019-01-26T18:32:58.335Z,7.20
2019-01-26T18:35:27.301Z,6.58
2019-01-26T18:37:56.017Z,6.92
2019-01-26T18:40:29.267Z,6.37
2019-01-26T18:42:58.577Z,5.47
2019-01-26T18:45:32.625Z,6.70
2019-01-26T18:48:01.913Z,5.78
2019-01-26T18:50:36.812Z,4.92
2019-01-26T18:53:05.552Z,4.97
2019-01-26T18:55:34.285Z,5.92
2019-01-26T18:58:03.214Z,5.20
2019-01-26T19:00:37.635Z,4.95
2019-01-26T19:03:21.899Z,6.33
2019-01-26T19:05:51.897Z,7.75
2019-01-26T19:08:20.909Z,5.10
2019-01-26T19:10:49.769Z,4.90
2019-01-26T19:13:18.565Z,4.30
2019-01-26T19:15:47.462Z,4.90
2019-01-26T19:18:16.846Z,4.55
2019-01-26T19:20:45.855Z,4.17
2019-01-26T19:23:14.664Z,4.58
2019-01-26T19:25:43.724Z,4.50
2019-01-26T19:28:12.937Z,4.50
2019-01-26T19:30:42.141Z,4.60
2019-01-26T19:33:11.423Z,4.12
2019-01-26T19:35:40.614Z,3.83
2019-01-26T19:38:10.374Z,5.17
2019-01-26T19:40:39.526Z,5.12
2019-01-26T19:43:08.620Z,5.60
2019-01-26T19:45:37.610Z,5.08
2019-01-26T19:48:07.053Z,4.65
2019-01-26T19:50:36.329Z,5.10
2019-01-26T19:53:05.940Z,4.85
2019-01-26T19:55:35.341Z,4.62
2019-01-26T19:58:04.668Z,3.83
2019-01-26T20:00:34.029Z,4.85
2019-01-26T20:03:03.200Z,4.30
2019-01-26T20:05:32.881Z,5.85
2019-01-26T20:08:02.375Z,5.17
2019-01-26T20:10:32.046Z,4.80
2019-01-26T20:13:01.278Z,5.72
2019-01-26T20:15:30.476Z,5.75
2019-01-26T20:17:59.676Z,5.08
2019-01-26T20:20:34.899Z,5.80
2019-01-26T20:23:04.748Z,6.55
2019-01-26T20:25:33.933Z,6.15
2019-01-26T20:28:03.985Z,5.50
2019-01-26T20:30:34.561Z,5.45
2019-01-26T20:33:04.313Z,5.50
2019-01-26T20:35:33.981Z,5.75
2019-01-26T20:38:03.586Z,6.15
2019-01-26T20:40:33.027Z,20.17
2019-01-26T20:43:02.292Z,22.20
2019-01-26T20:45:32.025Z,24.47
2019-01-26T20:48:01.430Z,38.80
2019-01-26T20:50:30.784Z,38.38
2019-01-26T20:53:00.129Z,37.90
2019-01-26T20:55:29.770Z,21.02
2019-01-26T20:57:59.567Z,23.50
2019-01-26T21:00:31.004Z,6.87
2019-01-26T21:03:00.206Z,5.85
2019-01-26T21:05:29.734Z,6.50
2019-01-26T21:07:59.133Z,6.37
2019-01-26T21:10:29.970Z,5.62
2019-01-26T21:12:59.666Z,5.67
2019-01-26T21:15:28.881Z,6.50
2019-01-26T21:17:58.101Z,5.35
2019-01-26T21:20:28.004Z,6.65
2019-01-26T21:22:57.287Z,6.33
2019-01-26T21:25:26.609Z,5.40
2019-01-26T21:27:55.880Z,7.20
2019-01-26T21:30:29.491Z,5.25
2019-01-26T21:32:58.481Z,6.53
2019-01-26T21:35:27.676Z,5.53
2019-01-26T21:37:56.380Z,6.03
2019-01-26T21:40:30.424Z,5.50
2019-01-26T21:43:00.185Z,5.85
2019-01-26T21:45:29.025Z,5.75
2019-01-26T21:47:58.165Z,6.62
2019-01-26T21:50:28.825Z,7.05
2019-01-26T21:52:58.370Z,5.97
2019-01-26T21:55:27.184Z,6.97
2019-01-26T21:57:55.852Z,6.25
2019-01-26T22:00:29.208Z,7.45
2019-01-26T22:02:57.781Z,5.87
2019-01-26T22:05:26.585Z,6.97
2019-01-26T22:07:55.089Z,8.40
2019-01-26T22:10:26.125Z,6.97
2019-01-26T22:12:54.712Z,7.90
2019-01-26T22:15:24.136Z,6.65
2019-01-26T22:17:53.145Z,6.10
2019-01-26T22:20:23.878Z,5.70
2019-01-26T22:22:52.351Z,6.30
2019-01-26T22:25:21.320Z,6.20
2019-01-26T22:27:49.857Z,5.78
2019-01-26T22:30:26.693Z,5.53
2019-01-26T22:32:55.283Z,6.67
2019-01-26T22:35:24.208Z,7.70
2019-01-26T22:37:52.894Z,7.40
2019-01-26T22:40:24.397Z,6.42
2019-01-26T22:42:52.949Z,6.40
2019-01-26T22:45:22.000Z,6.78
2019-01-26T22:47:50.573Z,5.80
2019-01-26T22:50:21.584Z,7.70
2019-01-26T22:52:50.076Z,5.95
2019-01-26T22:55:20.249Z,5.62
2019-01-26T22:57:49.137Z,5.67
2019-01-26T23:00:49.197Z,5.97
2019-01-26T23:03:18.394Z,5.45
2019-01-26T23:06:11.843Z,5.50
2019-01-26T23:08:40.282Z,6.28
2019-01-26T23:11:14.720Z,7.60
2019-01-26T23:13:46.527Z,6.60
2019-01-26T23:16:23.450Z,5.80
2019-01-26T23:19:11.780Z,5.50
2019-01-26T23:21:52.021Z,5.87
2019-01-26T23:24:38.561Z,5.53
2019-01-26T23:27:19.165Z,5.53
2019-01-26T23:29:53.270Z,4.15
2019-01-26T23:32:21.696Z,4.72
2019-01-26T23:34:50.092Z,4.20
2019-01-26T23:37:18.504Z,4.65
2019-01-26T23:39:46.914Z,3.60
2019-01-26T23:42:15.336Z,3.60
2019-01-26T23:44:43.743Z,3.70
2019-01-26T23:47:12.144Z,4.00
2019-01-26T23:49:40.549Z,3.70
2019-01-26T23:52:08.996Z,4.20
2019-01-26T23:54:37.413Z,5.30
2019-01-26T23:57:05.804Z,4.15
2019-01-26T23:59:34.220Z,3.95
